sensor_id;sensor_type;location;lat;lon;timestamp;pressure;altitude;pressure_sealevel;temperature;humidity
7918;BME280;4004;42.624;23.386;2022-11-20T00:00:17;93478.91;;;13.40;100.00
7918;BME280;4004;42.624;23.386;2022-11-20T00:02:44;93484.34;;;13.33;100.00
7918;BME280;4004;42.624;23.386;2022-11-20T00:05:12;93469.59;;;13.77;100.00
7918;BME280;4004;42.624;23.386;2022-11-20T00:07:39;93508.16;;;13.78;100.00
7918;BME280;4004;42.624;23.386;2022-11-20T00:10:07;93469.59;;;13.77;100.00
7918;BME280;4004;42.624;23.386;2022-11-20T00:12:34;93474.19;;;13.84;100.00
7918;BME280;4004;42.624;23.386;2022-11-20T00:15:00;93483.00;;;14.76;100.00
7918;BME280;4004;42.624;23.386;2022-11-20T00:17:27;93485.09;;;15.10;99.69
7918;BME280;4004;42.624;23.386;2022-11-20T00:19:54;93474.69;;;15.05;100.00
7918;BME280;4004;42.624;23.386;2022-11-20T00:22:22;93458.94;;;14.92;100.00
7918;BME280;4004;42.624;23.386;2022-11-20T00:24:49;93469.03;;;14.85;100.00
7918;BME280;4004;42.624;23.386;2022-11-20T00:27:15;93462.50;;;14.82;100.00
7918;BME280;4004;42.624;23.386;2022-11-20T00:29:42;93456.75;;;14.73;100.00
7918;BME280;4004;42.624;23.386;2022-11-20T00:32:09;93451.28;;;14.80;100.00
7918;BME280;4004;42.624;23.386;2022-11-20T00:34:36;93458.66;;;14.76;100.00
7918;BME280;4004;42.624;23.386;2022-11-20T00:37:03;93454.28;;;14.93;99.92
7918;BME280;4004;42.624;23.386;2022-11-20T00:39:31;93473.50;;;15.09;95.49
7918;BME280;4004;42.624;23.386;2022-11-20T00:41:57;93475.03;;;15.14;96.55
7918;BME280;4004;42.624;23.386;2022-11-20T00:44:24;93480.00;;;15.19;94.59
7918;BME280;4004;42.624;23.386;2022-11-20T00:46:51;93472.94;;;15.32;94.05
7918;BME280;4004;42.624;23.386;2022-11-20T00:49:19;93464.75;;;15.36;92.30
7918;BME280;4004;42.624;23.386;2022-11-20T00:51:45;93473.97;;;15.42;91.20
7918;BME280;4004;42.624;23.386;2022-11-20T00:54:12;93509.38;;;15.66;90.64
7918;BME280;4004;42.624;23.386;2022-11-20T00:56:40;93478.47;;;15.60;90.25
7918;BME280;4004;42.624;23.386;2022-11-20T00:59:09;93491.13;;;15.73;87.32
7918;BME280;4004;42.624;23.386;2022-11-20T01:01:36;93502.47;;;15.99;86.06
7918;BME280;4004;42.624;23.386;2022-11-20T01:04:03;93485.94;;;16.21;84.72
7918;BME280;4004;42.624;23.386;2022-11-20T01:06:32;93487.13;;;16.20;84.91
7918;BME280;4004;42.624;23.386;2022-11-20T01:09:01;93467.19;;;16.03;86.62
7918;BME280;4004;42.624;23.386;2022-11-20T01:11:30;93478.97;;;15.89;87.00
7918;BME280;4004;42.624;23.386;2022-11-20T01:13:59;93481.66;;;15.89;87.28
7918;BME280;4004;42.624;23.386;2022-11-20T01:16:28;93482.91;;;15.81;88.56
7918;BME280;4004;42.624;23.386;2022-11-20T01:18:56;93444.75;;;15.64;88.78
7918;BME280;4004;42.624;23.386;2022-11-20T01:21:25;93472.66;;;15.61;89.75
7918;BME280;4004;42.624;23.386;2022-11-20T01:23:52;93461.53;;;15.52;90.53
7918;BME280;4004;42.624;23.386;2022-11-20T01:26:22;93465.13;;;15.38;91.34
7918;BME280;4004;42.624;23.386;2022-11-20T01:28:49;93438.84;;;15.35;92.21
7918;BME280;4004;42.624;23.386;2022-11-20T01:31:20;93437.06;;;15.21;92.70
7918;BME280;4004;42.624;23.386;2022-11-20T01:33:49;93436.25;;;15.24;92.42
7918;BME280;4004;42.624;23.386;2022-11-20T01:36:17;93424.97;;;15.29;90.70
7918;BME280;4004;42.624;23.386;2022-11-20T01:38:45;93423.38;;;15.36;90.27
7918;BME280;4004;42.624;23.386;2022-11-20T01:41:13;93426.50;;;15.34;91.02
7918;BME280;4004;42.624;23.386;2022-11-20T01:44:02;93432.22;;;15.40;89.63
7918;BME280;4004;42.624;23.386;2022-11-20T01:46:30;93424.44;;;15.45;90.98
7918;BME280;4004;42.624;23.386;2022-11-20T01:49:00;93419.50;;;15.37;91.57
7918;BME280;4004;42.624;23.386;2022-11-20T01:51:33;93413.06;;;15.20;93.05
7918;BME280;4004;42.624;23.386;2022-11-20T01:54:04;93407.69;;;15.16;92.61
7918;BME280;4004;42.624;23.386;2022-11-20T01:56:36;93420.00;;;15.24;93.39
7918;BME280;4004;42.624;23.386;2022-11-20T01:59:06;93404.47;;;15.28;91.06
7918;BME280;4004;42.624;23.386;2022-11-20T02:01:35;93416.84;;;15.29;93.12
7918;BME280;4004;42.624;23.386;2022-11-20T02:04:02;93416.50;;;15.27;93.09
7918;BME280;4004;42.624;23.386;2022-11-20T02:06:32;93423.03;;;15.30;94.23
7918;BME280;4004;42.624;23.386;2022-11-20T02:09:01;93427.78;;;15.19;94.34
7918;BME280;4004;42.624;23.386;2022-11-20T02:11:29;93439.75;;;15.21;92.64
7918;BME280;4004;42.624;23.386;2022-11-20T02:13:56;93433.91;;;15.26;91.82
7918;BME280;4004;42.624;23.386;2022-11-20T02:16:24;93431.94;;;15.27;92.46
7918;BME280;4004;42.624;23.386;2022-11-20T02:18:54;93430.44;;;15.26;92.63
7918;BME280;4004;42.624;23.386;2022-11-20T02:21:32;93424.84;;;15.44;89.02
7918;BME280;4004;42.624;23.386;2022-11-20T02:24:07;93428.22;;;15.51;89.30
7918;BME280;4004;42.624;23.386;2022-11-20T02:26:41;93425.97;;;15.84;82.23
7918;BME280;4004;42.624;23.386;2022-11-20T02:29:09;93399.91;;;15.94;82.02
7918;BME280;4004;42.624;23.386;2022-11-20T02:31:38;93432.03;;;15.95;81.99
7918;BME280;4004;42.624;23.386;2022-11-20T02:34:06;93440.78;;;16.07;81.19
7918;BME280;4004;42.624;23.386;2022-11-20T02:36:34;93411.09;;;15.96;81.68
7918;BME280;4004;42.624;23.386;2022-11-20T02:39:02;93426.75;;;16.15;80.61
7918;BME280;4004;42.624;23.386;2022-11-20T02:41:34;93431.63;;;16.28;78.72
7918;BME280;4004;42.624;23.386;2022-11-20T02:44:03;93446.31;;;16.30;79.00
7918;BME280;4004;42.624;23.386;2022-11-20T02:46:30;93441.91;;;16.40;77.80
7918;BME280;4004;42.624;23.386;2022-11-20T02:48:57;93442.75;;;16.37;78.43
7918;BME280;4004;42.624;23.386;2022-11-20T02:51:24;93465.16;;;16.41;76.34
7918;BME280;4004;42.624;23.386;2022-11-20T02:53:50;93437.09;;;16.51;75.02
7918;BME280;4004;42.624;23.386;2022-11-20T02:56:17;93457.91;;;16.62;74.82
7918;BME280;4004;42.624;23.386;2022-11-20T02:58:45;93456.56;;;16.73;73.18
7918;BME280;4004;42.624;23.386;2022-11-20T03:01:12;93436.34;;;17.05;71.21
7918;BME280;4004;42.624;23.386;2022-11-20T03:03:39;93460.22;;;17.14;70.74
7918;BME280;4004;42.624;23.386;2022-11-20T03:06:06;93483.38;;;17.22;69.82
7918;BME280;4004;42.624;23.386;2022-11-20T03:08:33;93485.16;;;17.32;68.25
7918;BME280;4004;42.624;23.386;2022-11-20T03:11:02;93490.53;;;17.36;67.83
7918;BME280;4004;42.624;23.386;2022-11-20T03:13:29;93450.66;;;17.53;67.03
7918;BME280;4004;42.624;23.386;2022-11-20T03:15:57;93484.19;;;17.66;66.10
7918;BME280;4004;42.624;23.386;2022-11-20T03:18:27;93476.63;;;17.54;66.60
7918;BME280;4004;42.624;23.386;2022-11-20T03:20:57;93458.94;;;17.46;67.22
7918;BME280;4004;42.624;23.386;2022-11-20T03:23:24;93485.63;;;17.51;67.00
7918;BME280;4004;42.624;23.386;2022-11-20T03:25:51;93486.56;;;17.40;68.01
7918;BME280;4004;42.624;23.386;2022-11-20T03:28:17;93485.75;;;17.44;67.18
7918;BME280;4004;42.624;23.386;2022-11-20T03:30:44;93490.75;;;17.45;66.80
7918;BME280;4004;42.624;23.386;2022-11-20T03:33:12;93487.47;;;17.57;65.82
7918;BME280;4004;42.624;23.386;2022-11-20T03:35:39;93486.91;;;17.66;65.24
7918;BME280;4004;42.624;23.386;2022-11-20T03:38:05;93490.47;;;17.63;65.60
7918;BME280;4004;42.624;23.386;2022-11-20T03:40:33;93497.94;;;17.59;64.88
7918;BME280;4004;42.624;23.386;2022-11-20T03:43:00;93477.44;;;17.54;65.71
7918;BME280;4004;42.624;23.386;2022-11-20T03:45:27;93484.38;;;17.55;65.72
7918;BME280;4004;42.624;23.386;2022-11-20T03:47:53;93480.56;;;17.53;65.30
7918;BME280;4004;42.624;23.386;2022-11-20T03:50:21;93499.53;;;17.56;65.12
7918;BME280;4004;42.624;23.386;2022-11-20T03:52:48;93488.34;;;17.51;65.50
7918;BME280;4004;42.624;23.386;2022-11-20T03:55:15;93490.72;;;17.49;65.63
7918;BME280;4004;42.624;23.386;2022-11-20T03:57:42;93484.50;;;17.48;65.19
7918;BME280;4004;42.624;23.386;2022-11-20T04:00:09;93495.25;;;17.55;64.29
7918;BME280;4004;42.624;23.386;2022-11-20T04:02:36;93491.78;;;17.55;64.61
7918;BME280;4004;42.624;23.386;2022-11-20T04:05:03;93492.25;;;17.50;64.67
7918;BME280;4004;42.624;23.386;2022-11-20T04:07:33;93494.63;;;17.48;64.88
7918;BME280;4004;42.624;23.386;2022-11-20T04:10:00;93478.19;;;17.55;63.89
7918;BME280;4004;42.624;23.386;2022-11-20T04:12:27;93492.13;;;17.57;63.45
7918;BME280;4004;42.624;23.386;2022-11-20T04:14:54;93482.19;;;17.70;62.04
7918;BME280;4004;42.624;23.386;2022-11-20T04:17:20;93500.38;;;17.73;62.54
7918;BME280;4004;42.624;23.386;2022-11-20T04:19:47;93514.50;;;17.65;62.68
7918;BME280;4004;42.624;23.386;2022-11-20T04:22:14;93516.13;;;17.62;63.19
7918;BME280;4004;42.624;23.386;2022-11-20T04:24:42;93498.03;;;17.52;63.46
7918;BME280;4004;42.624;23.386;2022-11-20T04:27:08;93512.84;;;17.47;63.91
7918;BME280;4004;42.624;23.386;2022-11-20T04:29:35;93522.19;;;17.46;64.00
7918;BME280;4004;42.624;23.386;2022-11-20T04:32:02;93528.94;;;17.38;64.87
7918;BME280;4004;42.624;23.386;2022-11-20T04:34:29;93530.47;;;17.39;65.54
7918;BME280;4004;42.624;23.386;2022-11-20T04:36:55;93519.78;;;17.28;66.14
7918;BME280;4004;42.624;23.386;2022-11-20T04:39:22;93528.56;;;17.36;67.44
7918;BME280;4004;42.624;23.386;2022-11-20T04:41:50;93518.66;;;17.26;68.68
7918;BME280;4004;42.624;23.386;2022-11-20T04:44:37;93533.88;;;17.19;68.91
7918;BME280;4004;42.624;23.386;2022-11-20T04:47:04;93526.81;;;17.26;68.21
7918;BME280;4004;42.624;23.386;2022-11-20T04:49:31;93519.78;;;17.28;68.83
7918;BME280;4004;42.624;23.386;2022-11-20T04:51:59;93516.03;;;17.18;68.82
7918;BME280;4004;42.624;23.386;2022-11-20T04:54:25;93509.03;;;17.21;68.95
7918;BME280;4004;42.624;23.386;2022-11-20T04:56:54;93509.47;;;17.16;69.68
7918;BME280;4004;42.624;23.386;2022-11-20T04:59:20;93507.94;;;17.15;69.73
7918;BME280;4004;42.624;23.386;2022-11-20T05:01:47;93503.63;;;17.17;69.74
7918;BME280;4004;42.624;23.386;2022-11-20T05:04:14;93506.75;;;17.16;70.21
7918;BME280;4004;42.624;23.386;2022-11-20T05:06:40;93484.75;;;17.10;71.02
7918;BME280;4004;42.624;23.386;2022-11-20T05:09:07;93503.41;;;17.08;73.18
7918;BME280;4004;42.624;23.386;2022-11-20T05:11:34;93520.56;;;17.02;75.05
7918;BME280;4004;42.624;23.386;2022-11-20T05:14:02;93503.66;;;16.90;78.61
7918;BME280;4004;42.624;23.386;2022-11-20T05:16:29;93501.94;;;16.73;82.60
7918;BME280;4004;42.624;23.386;2022-11-20T05:18:56;93501.44;;;16.54;86.22
7918;BME280;4004;42.624;23.386;2022-11-20T05:21:22;93496.66;;;16.31;89.73
7918;BME280;4004;42.624;23.386;2022-11-20T05:23:49;93477.09;;;16.16;92.85
7918;BME280;4004;42.624;23.386;2022-11-20T05:26:17;93488.84;;;16.06;95.12
7918;BME280;4004;42.624;23.386;2022-11-20T05:28:44;93476.59;;;15.94;97.50
7918;BME280;4004;42.624;23.386;2022-11-20T05:31:15;93493.06;;;15.73;99.51
7918;BME280;4004;42.624;23.386;2022-11-20T05:33:43;93497.72;;;15.72;99.99
7918;BME280;4004;42.624;23.386;2022-11-20T05:36:12;93494.72;;;15.60;100.00
7918;BME280;4004;42.624;23.386;2022-11-20T05:38:39;93504.06;;;15.55;100.00
7918;BME280;4004;42.624;23.386;2022-11-20T05:41:08;93496.41;;;15.46;100.00
7918;BME280;4004;42.624;23.386;2022-11-20T05:43:35;93496.06;;;15.41;100.00
7918;BME280;4004;42.624;23.386;2022-11-20T05:46:03;93487.50;;;15.46;100.00
7918;BME280;4004;42.624;23.386;2022-11-20T05:48:32;93499.41;;;15.55;100.00
7918;BME280;4004;42.624;23.386;2022-11-20T05:50:59;93490.50;;;15.55;100.00
7918;BME280;4004;42.624;23.386;2022-11-20T05:53:26;93487.03;;;15.54;100.00
7918;BME280;4004;42.624;23.386;2022-11-20T05:56:00;93473.88;;;15.53;100.00
7918;BME280;4004;42.624;23.386;2022-11-20T05:58:28;93465.78;;;15.49;100.00
7918;BME280;4004;42.624;23.386;2022-11-20T06:01:03;93494.19;;;15.34;100.00
7918;BME280;4004;42.624;23.386;2022-11-20T06:03:31;93469.41;;;15.36;100.00
7918;BME280;4004;42.624;23.386;2022-11-20T06:05:58;93474.78;;;15.39;100.00
7918;BME280;4004;42.624;23.386;2022-11-20T06:08:25;93477.94;;;15.34;100.00
7918;BME280;4004;42.624;23.386;2022-11-20T06:10:52;93468.28;;;15.29;100.00
7918;BME280;4004;42.624;23.386;2022-11-20T06:13:19;93477.53;;;15.36;100.00
7918;BME280;4004;42.624;23.386;2022-11-20T06:15:48;93480.53;;;15.45;100.00
7918;BME280;4004;42.624;23.386;2022-11-20T06:18:15;93488.25;;;15.50;100.00
7918;BME280;4004;42.624;23.386;2022-11-20T06:20:43;93477.81;;;15.45;100.00
7918;BME280;4004;42.624;23.386;2022-11-20T06:23:10;93476.28;;;15.47;99.76
7918;BME280;4004;42.624;23.386;2022-11-20T06:25:37;93487.78;;;15.59;99.10
7918;BME280;4004;42.624;23.386;2022-11-20T06:28:04;93500.47;;;15.65;97.90
7918;BME280;4004;42.624;23.386;2022-11-20T06:30:31;93497.72;;;15.69;98.07
7918;BME280;4004;42.624;23.386;2022-11-20T06:32:57;93503.19;;;15.65;98.19
7918;BME280;4004;42.624;23.386;2022-11-20T06:35:24;93497.34;;;15.74;96.55
7918;BME280;4004;42.624;23.386;2022-11-20T06:37:52;93492.25;;;15.76;96.45
7918;BME280;4004;42.624;23.386;2022-11-20T06:40:19;93499.97;;;15.81;94.60
7918;BME280;4004;42.624;23.386;2022-11-20T06:42:46;93486.72;;;15.87;94.84
7918;BME280;4004;42.624;23.386;2022-11-20T06:45:12;93496.81;;;15.86;94.23
7918;BME280;4004;42.624;23.386;2022-11-20T06:47:39;93488.59;;;15.93;93.69
7918;BME280;4004;42.624;23.386;2022-11-20T06:50:06;93494.38;;;15.95;93.12
7918;BME280;4004;42.624;23.386;2022-11-20T06:52:33;93484.66;;;15.98;93.59
7918;BME280;4004;42.624;23.386;2022-11-20T06:55:01;93505.50;;;16.05;92.16
7918;BME280;4004;42.624;23.386;2022-11-20T06:57:28;93499.69;;;16.06;91.53
7918;BME280;4004;42.624;23.386;2022-11-20T06:59:54;93509.75;;;16.06;90.97
7918;BME280;4004;42.624;23.386;2022-11-20T07:02:21;93511.94;;;16.18;89.04
7918;BME280;4004;42.624;23.386;2022-11-20T07:04:48;93510.72;;;16.23;87.16
7918;BME280;4004;42.624;23.386;2022-11-20T07:07:15;93512.50;;;16.36;85.39
7918;BME280;4004;42.624;23.386;2022-11-20T07:09:41;93528.72;;;16.40;86.55
7918;BME280;4004;42.624;23.386;2022-11-20T07:12:09;93520.59;;;16.40;85.57
7918;BME280;4004;42.624;23.386;2022-11-20T07:14:36;93507.72;;;16.48;84.66
7918;BME280;4004;42.624;23.386;2022-11-20T07:17:05;93517.28;;;16.56;82.33
7918;BME280;4004;42.624;23.386;2022-11-20T07:19:31;93518.81;;;16.57;82.20
7918;BME280;4004;42.624;23.386;2022-11-20T07:21:58;93523.06;;;16.58;81.95
7918;BME280;4004;42.624;23.386;2022-11-20T07:24:25;93537.44;;;16.58;81.68
7918;BME280;4004;42.624;23.386;2022-11-20T07:26:51;93523.84;;;16.58;81.06
7918;BME280;4004;42.624;23.386;2022-11-20T07:29:19;93524.16;;;16.64;78.81
7918;BME280;4004;42.624;23.386;2022-11-20T07:31:46;93511.44;;;16.57;80.50
7918;BME280;4004;42.624;23.386;2022-11-20T07:34:13;93521.16;;;16.58;81.25
7918;BME280;4004;42.624;23.386;2022-11-20T07:36:40;93516.06;;;16.61;81.13
7918;BME280;4004;42.624;23.386;2022-11-20T07:39:06;93516.84;;;16.61;80.88
7918;BME280;4004;42.624;23.386;2022-11-20T07:41:33;93511.06;;;16.59;80.70
7918;BME280;4004;42.624;23.386;2022-11-20T07:44:00;93512.91;;;16.66;79.98
7918;BME280;4004;42.624;23.386;2022-11-20T07:46:28;93509.00;;;16.67;81.18
7918;BME280;4004;42.624;23.386;2022-11-20T07:49:11;93506.75;;;16.62;82.25
7918;BME280;4004;42.624;23.386;2022-11-20T07:51:40;93510.56;;;16.68;80.78
7918;BME280;4004;42.624;23.386;2022-11-20T07:54:06;93509.00;;;16.67;81.06
7918;BME280;4004;42.624;23.386;2022-11-20T07:56:33;93514.75;;;16.72;81.24
7918;BME280;4004;42.624;23.386;2022-11-20T07:59:00;93524.31;;;16.84;80.72
7918;BME280;4004;42.624;23.386;2022-11-20T08:01:28;93531.03;;;16.72;80.18
7918;BME280;4004;42.624;23.386;2022-11-20T08:03:54;93524.38;;;16.77;79.76
7918;BME280;4004;42.624;23.386;2022-11-20T08:06:21;93522.44;;;16.77;79.38
7918;BME280;4004;42.624;23.386;2022-11-20T08:08:49;93530.97;;;16.76;78.77
7918;BME280;4004;42.624;23.386;2022-11-20T08:11:16;93522.41;;;16.81;78.87
7918;BME280;4004;42.624;23.386;2022-11-20T08:14:01;93515.78;;;16.82;79.74
7918;BME280;4004;42.624;23.386;2022-11-20T08:16:42;93502.53;;;16.88;78.51
7918;BME280;4004;42.624;23.386;2022-11-20T08:19:09;93507.38;;;17.00;76.86
7918;BME280;4004;42.624;23.386;2022-11-20T08:21:36;93514.75;;;17.03;76.82
7918;BME280;4004;42.624;23.386;2022-11-20T08:24:04;93521.56;;;17.11;75.31
7918;BME280;4004;42.624;23.386;2022-11-20T08:26:30;93510.25;;;17.16;74.84
7918;BME280;4004;42.624;23.386;2022-11-20T08:28:58;93525.31;;;17.21;73.87
7918;BME280;4004;42.624;23.386;2022-11-20T08:31:25;93522.25;;;17.19;74.40
7918;BME280;4004;42.624;23.386;2022-11-20T08:33:54;93528.63;;;17.32;73.98
7918;BME280;4004;42.624;23.386;2022-11-20T08:36:21;93529.88;;;17.28;72.92
7918;BME280;4004;42.624;23.386;2022-11-20T08:38:49;93535.25;;;17.31;73.46
7918;BME280;4004;42.624;23.386;2022-11-20T08:41:16;93526.63;;;17.36;73.33
7918;BME280;4004;42.624;23.386;2022-11-20T08:43:54;93539.03;;;17.37;72.99
7918;BME280;4004;42.624;23.386;2022-11-20T08:46:22;93542.47;;;17.42;73.01
7918;BME280;4004;42.624;23.386;2022-11-20T08:48:48;93554.50;;;17.40;73.26
7918;BME280;4004;42.624;23.386;2022-11-20T08:51:17;93567.22;;;17.47;71.73
7918;BME280;4004;42.624;23.386;2022-11-20T08:53:44;93572.25;;;17.49;71.22
7918;BME280;4004;42.624;23.386;2022-11-20T08:56:11;93564.59;;;17.40;72.71
7918;BME280;4004;42.624;23.386;2022-11-20T08:58:38;93566.69;;;17.32;74.34
7918;BME280;4004;42.624;23.386;2022-11-20T09:01:05;93557.41;;;17.30;76.34
7918;BME280;4004;42.624;23.386;2022-11-20T09:03:32;93562.41;;;17.31;77.06
7918;BME280;4004;42.624;23.386;2022-11-20T09:05:59;93578.06;;;17.24;78.50
7918;BME280;4004;42.624;23.386;2022-11-20T09:08:28;93562.28;;;17.15;76.95
7918;BME280;4004;42.624;23.386;2022-11-20T09:10:56;93555.75;;;17.09;77.68
7918;BME280;4004;42.624;23.386;2022-11-20T09:13:25;93570.59;;;17.01;78.98
7918;BME280;4004;42.624;23.386;2022-11-20T09:15:53;93560.97;;;16.96;80.32
7918;BME280;4004;42.624;23.386;2022-11-20T09:18:20;93558.22;;;16.99;82.87
7918;BME280;4004;42.624;23.386;2022-11-20T09:20:47;93557.84;;;16.97;82.50
7918;BME280;4004;42.624;23.386;2022-11-20T09:23:15;93556.88;;;16.84;84.11
7918;BME280;4004;42.624;23.386;2022-11-20T09:25:43;93556.41;;;16.89;84.17
7918;BME280;4004;42.624;23.386;2022-11-20T09:28:10;93567.19;;;16.96;82.94
7918;BME280;4004;42.624;23.386;2022-11-20T09:30:36;93556.75;;;16.95;83.72
7918;BME280;4004;42.624;23.386;2022-11-20T09:33:04;93558.97;;;17.00;85.94
7918;BME280;4004;42.624;23.386;2022-11-20T09:35:31;93549.22;;;17.06;87.67
7918;BME280;4004;42.624;23.386;2022-11-20T09:37:58;93528.47;;;16.92;85.73
7918;BME280;4004;42.624;23.386;2022-11-20T09:40:28;93542.16;;;16.85;88.76
7918;BME280;4004;42.624;23.386;2022-11-20T09:42:59;93548.38;;;16.82;91.63
7918;BME280;4004;42.624;23.386;2022-11-20T09:45:58;93550.78;;;16.73;90.81
7918;BME280;4004;42.624;23.386;2022-11-20T09:51:34;93530.41;;;16.61;94.72
7918;BME280;4004;42.624;23.386;2022-11-20T09:54:15;93540.63;;;16.50;95.63
7918;BME280;4004;42.624;23.386;2022-11-20T09:56:46;93541.13;;;16.41;96.99
7918;BME280;4004;42.624;23.386;2022-11-20T09:59:25;93550.53;;;16.29;94.34
7918;BME280;4004;42.624;23.386;2022-11-20T10:01:54;93525.13;;;16.16;95.84
7918;BME280;4004;42.624;23.386;2022-11-20T10:04:22;93525.09;;;16.20;96.68
7918;BME280;4004;42.624;23.386;2022-11-20T10:06:53;93539.00;;;16.25;97.70
7918;BME280;4004;42.624;23.386;2022-11-20T10:09:27;93526.06;;;16.36;100.00
7918;BME280;4004;42.624;23.386;2022-11-20T10:12:09;93513.00;;;16.28;97.77
7918;BME280;4004;42.624;23.386;2022-11-20T10:14:49;93501.88;;;16.19;100.00
7918;BME280;4004;42.624;23.386;2022-11-20T10:17:27;93507.53;;;15.97;100.00
7918;BME280;4004;42.624;23.386;2022-11-20T10:20:14;93498.31;;;15.91;100.00
7918;BME280;4004;42.624;23.386;2022-11-20T10:22:53;93501.41;;;15.89;100.00
7918;BME280;4004;42.624;23.386;2022-11-20T10:25:32;93490.56;;;15.89;100.00
7918;BME280;4004;42.624;23.386;2022-11-20T10:28:24;93482.28;;;16.04;98.85
7918;BME280;4004;42.624;23.386;2022-11-20T10:30:59;93491.56;;;16.03;100.00
7918;BME280;4004;42.624;23.386;2022-11-20T10:33:29;93486.31;;;15.92;100.00
7918;BME280;4004;42.624;23.386;2022-11-20T10:36:06;93509.31;;;15.73;100.00
7918;BME280;4004;42.624;23.386;2022-11-20T10:38:37;93518.44;;;15.48;100.00
7918;BME280;4004;42.624;23.386;2022-11-20T10:41:06;93510.00;;;15.39;100.00
7918;BME280;4004;42.624;23.386;2022-11-20T10:44:00;93505.50;;;15.22;100.00
7918;BME280;4004;42.624;23.386;2022-11-20T10:46:36;93514.06;;;15.13;100.00
7918;BME280;4004;42.624;23.386;2022-11-20T10:49:14;93490.97;;;15.01;100.00
7918;BME280;4004;42.624;23.386;2022-11-20T10:51:52;93500.66;;;14.99;100.00
7918;BME280;4004;42.624;23.386;2022-11-20T10:54:26;93506.84;;;14.96;100.00
7918;BME280;4004;42.624;23.386;2022-11-20T10:57:02;93512.19;;;15.06;100.00
7918;BME280;4004;42.624;23.386;2022-11-20T11:00:00;93504.84;;;15.07;100.00
7918;BME280;4004;42.624;23.386;2022-11-20T11:02:34;93519.56;;;15.06;100.00
7918;BME280;4004;42.624;23.386;2022-11-20T11:05:10;93530.81;;;15.01;100.00
7918;BME280;4004;42.624;23.386;2022-11-20T11:07:40;93530.00;;;15.07;100.00
7918;BME280;4004;42.624;23.386;2022-11-20T11:10:14;93536.53;;;15.10;100.00
7918;BME280;4004;42.624;23.386;2022-11-20T11:12:44;93545.44;;;15.07;100.00
7918;BME280;4004;42.624;23.386;2022-11-20T11:15:14;93556.31;;;15.03;100.00
7918;BME280;4004;42.624;23.386;2022-11-20T11:17:52;93557.50;;;14.99;100.00
7918;BME280;4004;42.624;23.386;2022-11-20T11:20:20;93586.53;;;14.95;100.00
7918;BME280;4004;42.624;23.386;2022-11-20T11:22:49;93597.38;;;14.91;100.00
7918;BME280;4004;42.624;23.386;2022-11-20T11:25:23;93550.53;;;14.98;100.00
7918;BME280;4004;42.624;23.386;2022-11-20T11:27:51;93542.00;;;15.03;100.00
7918;BME280;4004;42.624;23.386;2022-11-20T11:30:20;93554.06;;;14.91;100.00
7918;BME280;4004;42.624;23.386;2022-11-20T11:32:47;93547.50;;;14.92;100.00
7918;BME280;4004;42.624;23.386;2022-11-20T11:35:25;93556.81;;;14.87;100.00
7918;BME280;4004;42.624;23.386;2022-11-20T11:38:01;93562.69;;;14.68;100.00
7918;BME280;4004;42.624;23.386;2022-11-20T11:40:31;93595.56;;;14.63;100.00
7918;BME280;4004;42.624;23.386;2022-11-20T11:43:00;93574.72;;;14.49;100.00
7918;BME280;4004;42.624;23.386;2022-11-20T11:45:28;93575.19;;;14.37;100.00
7918;BME280;4004;42.624;23.386;2022-11-20T11:47:56;93574.47;;;14.15;100.00
7918;BME280;4004;42.624;23.386;2022-11-20T11:50:25;93571.03;;;14.03;100.00
7918;BME280;4004;42.624;23.386;2022-11-20T11:53:01;93562.91;;;14.00;100.00
7918;BME280;4004;42.624;23.386;2022-11-20T11:55:35;93555.59;;;13.97;100.00
7918;BME280;4004;42.624;23.386;2022-11-20T11:58:22;93544.03;;;13.93;100.00
7918;BME280;4004;42.624;23.386;2022-11-20T12:00:58;93532.47;;;13.78;100.00
7918;BME280;4004;42.624;23.386;2022-11-20T12:03:29;93527.47;;;13.83;100.00
7918;BME280;4004;42.624;23.386;2022-11-20T12:06:06;93520.91;;;13.74;100.00
7918;BME280;4004;42.624;23.386;2022-11-20T12:08:43;93522.47;;;13.67;100.00
7918;BME280;4004;42.624;23.386;2022-11-20T12:11:14;93526.75;;;13.51;100.00
7918;BME280;4004;42.624;23.386;2022-11-20T12:13:48;93531.75;;;13.45;100.00
7918;BME280;4004;42.624;23.386;2022-11-20T12:16:19;93500.50;;;13.40;100.00
7918;BME280;4004;42.624;23.386;2022-11-20T12:18:49;93518.66;;;13.36;100.00
7918;BME280;4004;42.624;23.386;2022-11-20T12:21:28;93549.13;;;13.40;100.00
7918;BME280;4004;42.624;23.386;2022-11-20T12:24:31;93554.13;;;13.42;100.00
7918;BME280;4004;42.624;23.386;2022-11-20T12:27:19;93525.59;;;13.41;100.00
7918;BME280;4004;42.624;23.386;2022-11-20T12:29:58;93532.16;;;13.40;100.00
7918;BME280;4004;42.624;23.386;2022-11-20T12:36:01;93554.47;;;13.22;100.00
7918;BME280;4004;42.624;23.386;2022-11-20T12:41:36;93515.16;;;13.11;100.00
7918;BME280;4004;42.624;23.386;2022-11-20T12:44:38;93449.63;;;13.10;100.00
7918;BME280;4004;42.624;23.386;2022-11-20T12:47:34;93463.50;;;13.19;100.00
7918;BME280;4004;42.624;23.386;2022-11-20T12:50:12;93450.78;;;13.23;100.00
7918;BME280;4004;42.624;23.386;2022-11-20T12:52:47;93445.75;;;13.18;100.00
7918;BME280;4004;42.624;23.386;2022-11-20T12:55:28;93456.19;;;13.23;100.00
7918;BME280;4004;42.624;23.386;2022-11-20T12:58:03;93431.13;;;13.12;100.00
7918;BME280;4004;42.624;23.386;2022-11-20T13:00:33;93434.97;;;13.18;100.00
7918;BME280;4004;42.624;23.386;2022-11-20T13:03:09;93415.69;;;13.38;100.00
7918;BME280;4004;42.624;23.386;2022-11-20T13:05:48;93416.69;;;13.80;100.00
7918;BME280;4004;42.624;23.386;2022-11-20T13:08:21;93433.97;;;14.07;100.00
7918;BME280;4004;42.624;23.386;2022-11-20T13:10:56;93423.47;;;14.17;100.00
7918;BME280;4004;42.624;23.386;2022-11-20T13:13:32;93431.97;;;14.19;100.00
7918;BME280;4004;42.624;23.386;2022-11-20T13:16:02;93438.84;;;14.27;100.00
7918;BME280;4004;42.624;23.386;2022-11-20T13:18:36;93453.16;;;14.24;100.00
7918;BME280;4004;42.624;23.386;2022-11-20T13:21:13;93459.72;;;14.30;100.00
7918;BME280;4004;42.624;23.386;2022-11-20T13:23:40;93470.91;;;14.28;100.00
7918;BME280;4004;42.624;23.386;2022-11-20T13:26:17;93461.28;;;14.24;100.00
7918;BME280;4004;42.624;23.386;2022-11-20T13:28:45;93467.81;;;14.30;100.00
7918;BME280;4004;42.624;23.386;2022-11-20T13:31:28;93471.75;;;14.15;100.00